sensor_id;sensor_type;location;lat;lon;timestamp;temperature;humidity
32753;DHT22;19121;52.428;10.816;2024-02-21T00:00:23;19.40;49.80
32753;DHT22;19121;52.428;10.816;2024-02-21T00:02:49;19.40;49.90
32753;DHT22;19121;52.428;10.816;2024-02-21T00:05:14;19.40;49.80
32753;DHT22;19121;52.428;10.816;2024-02-21T00:07:40;19.40;49.80
32753;DHT22;19121;52.428;10.816;2024-02-21T00:10:05;19.40;49.90
32753;DHT22;19121;52.428;10.816;2024-02-21T00:12:31;19.40;49.90
32753;DHT22;19121;52.428;10.816;2024-02-21T00:14:57;19.40;49.90
32753;DHT22;19121;52.428;10.816;2024-02-21T00:17:22;19.40;49.90
32753;DHT22;19121;52.428;10.816;2024-02-21T00:19:47;19.40;49.90
32753;DHT22;19121;52.428;10.816;2024-02-21T00:22:13;19.40;49.90
32753;DHT22;19121;52.428;10.816;2024-02-21T00:24:38;19.40;49.90
32753;DHT22;19121;52.428;10.816;2024-02-21T00:27:04;19.40;49.90
32753;DHT22;19121;52.428;10.816;2024-02-21T00:29:29;19.40;49.90
32753;DHT22;19121;52.428;10.816;2024-02-21T00:31:55;19.40;49.90
32753;DHT22;19121;52.428;10.816;2024-02-21T00:34:20;19.30;49.90
32753;DHT22;19121;52.428;10.816;2024-02-21T00:36:46;19.30;49.90
32753;DHT22;19121;52.428;10.816;2024-02-21T00:39:11;19.30;49.90
32753;DHT22;19121;52.428;10.816;2024-02-21T00:41:36;19.30;49.90
32753;DHT22;19121;52.428;10.816;2024-02-21T00:44:02;19.30;49.90
32753;DHT22;19121;52.428;10.816;2024-02-21T00:46:30;19.30;49.90
32753;DHT22;19121;52.428;10.816;2024-02-21T00:48:56;19.30;49.90
32753;DHT22;19121;52.428;10.816;2024-02-21T00:51:21;19.20;49.90
32753;DHT22;19121;52.428;10.816;2024-02-21T00:53:47;19.30;49.90
32753;DHT22;19121;52.428;10.816;2024-02-21T00:56:12;19.20;49.90
32753;DHT22;19121;52.428;10.816;2024-02-21T00:58:37;19.30;50.60
32753;DHT22;19121;52.428;10.816;2024-02-21T01:01:03;19.30;50.00
32753;DHT22;19121;52.428;10.816;2024-02-21T01:03:28;19.30;49.90
32753;DHT22;19121;52.428;10.816;2024-02-21T01:05:54;19.20;50.00
32753;DHT22;19121;52.428;10.816;2024-02-21T01:08:19;19.20;49.90
32753;DHT22;19121;52.428;10.816;2024-02-21T01:10:45;19.30;50.00
32753;DHT22;19121;52.428;10.816;2024-02-21T01:13:10;19.20;49.90
32753;DHT22;19121;52.428;10.816;2024-02-21T01:15:35;19.20;49.90
32753;DHT22;19121;52.428;10.816;2024-02-21T01:18:01;19.20;49.90
32753;DHT22;19121;52.428;10.816;2024-02-21T01:20:26;19.20;49.90
32753;DHT22;19121;52.428;10.816;2024-02-21T01:22:52;19.20;49.90
32753;DHT22;19121;52.428;10.816;2024-02-21T01:25:17;19.20;49.90
32753;DHT22;19121;52.428;10.816;2024-02-21T01:27:43;19.20;50.00
32753;DHT22;19121;52.428;10.816;2024-02-21T01:30:08;19.20;50.00
32753;DHT22;19121;52.428;10.816;2024-02-21T01:32:36;19.20;49.90
32753;DHT22;19121;52.428;10.816;2024-02-21T01:35:01;19.20;50.00
32753;DHT22;19121;52.428;10.816;2024-02-21T01:37:26;19.20;50.00
32753;DHT22;19121;52.428;10.816;2024-02-21T01:39:52;19.20;50.00
32753;DHT22;19121;52.428;10.816;2024-02-21T01:42:18;19.20;50.00
32753;DHT22;19121;52.428;10.816;2024-02-21T01:44:43;19.20;49.90
32753;DHT22;19121;52.428;10.816;2024-02-21T01:47:09;19.20;50.00
32753;DHT22;19121;52.428;10.816;2024-02-21T01:49:35;19.20;50.00
32753;DHT22;19121;52.428;10.816;2024-02-21T01:52:01;19.20;50.00
32753;DHT22;19121;52.428;10.816;2024-02-21T01:54:28;19.20;50.00
32753;DHT22;19121;52.428;10.816;2024-02-21T01:56:55;19.20;50.00
32753;DHT22;19121;52.428;10.816;2024-02-21T01:59:21;19.10;49.90
32753;DHT22;19121;52.428;10.816;2024-02-21T02:01:47;19.20;50.00
32753;DHT22;19121;52.428;10.816;2024-02-21T02:04:13;19.10;50.00
32753;DHT22;19121;52.428;10.816;2024-02-21T02:06:39;19.20;50.00
32753;DHT22;19121;52.428;10.816;2024-02-21T02:09:04;19.20;50.00
32753;DHT22;19121;52.428;10.816;2024-02-21T02:11:31;19.10;50.00
32753;DHT22;19121;52.428;10.816;2024-02-21T02:13:57;19.10;50.00
32753;DHT22;19121;52.428;10.816;2024-02-21T02:16:22;19.10;50.00
32753;DHT22;19121;52.428;10.816;2024-02-21T02:18:48;19.10;50.00
32753;DHT22;19121;52.428;10.816;2024-02-21T02:21:15;19.10;50.00
32753;DHT22;19121;52.428;10.816;2024-02-21T02:23:44;19.10;50.00
32753;DHT22;19121;52.428;10.816;2024-02-21T02:26:10;19.10;50.00
32753;DHT22;19121;52.428;10.816;2024-02-21T02:28:35;19.10;50.00
32753;DHT22;19121;52.428;10.816;2024-02-21T02:31:01;19.10;50.00
32753;DHT22;19121;52.428;10.816;2024-02-21T02:33:27;19.10;50.00
32753;DHT22;19121;52.428;10.816;2024-02-21T02:35:52;19.10;50.00
32753;DHT22;19121;52.428;10.816;2024-02-21T02:38:18;19.10;49.90
32753;DHT22;19121;52.428;10.816;2024-02-21T02:40:43;19.10;50.00
32753;DHT22;19121;52.428;10.816;2024-02-21T02:43:09;19.10;50.00
32753;DHT22;19121;52.428;10.816;2024-02-21T02:45:34;19.10;50.00
32753;DHT22;19121;52.428;10.816;2024-02-21T02:48:00;19.10;50.00
32753;DHT22;19121;52.428;10.816;2024-02-21T02:50:26;19.10;50.00
32753;DHT22;19121;52.428;10.816;2024-02-21T02:52:52;19.00;49.90
32753;DHT22;19121;52.428;10.816;2024-02-21T02:55:17;19.10;50.00
32753;DHT22;19121;52.428;10.816;2024-02-21T02:57:43;19.00;49.90
32753;DHT22;19121;52.428;10.816;2024-02-21T03:00:10;19.10;50.00
32753;DHT22;19121;52.428;10.816;2024-02-21T03:02:37;19.00;50.00
32753;DHT22;19121;52.428;10.816;2024-02-21T03:05:03;19.00;50.00
32753;DHT22;19121;52.428;10.816;2024-02-21T03:07:36;19.00;50.00
32753;DHT22;19121;52.428;10.816;2024-02-21T03:10:01;19.00;50.00
32753;DHT22;19121;52.428;10.816;2024-02-21T03:12:27;19.00;50.00
32753;DHT22;19121;52.428;10.816;2024-02-21T03:14:54;19.10;50.00
32753;DHT22;19121;52.428;10.816;2024-02-21T03:17:19;19.00;50.00
32753;DHT22;19121;52.428;10.816;2024-02-21T03:19:45;19.10;50.00
32753;DHT22;19121;52.428;10.816;2024-02-21T03:22:10;19.10;49.90
32753;DHT22;19121;52.428;10.816;2024-02-21T03:24:36;19.10;49.90
32753;DHT22;19121;52.428;10.816;2024-02-21T03:27:01;19.10;49.80
32753;DHT22;19121;52.428;10.816;2024-02-21T03:29:27;19.20;49.80
32753;DHT22;19121;52.428;10.816;2024-02-21T03:31:52;19.30;49.80
32753;DHT22;19121;52.428;10.816;2024-02-21T03:34:18;19.20;49.70
32753;DHT22;19121;52.428;10.816;2024-02-21T03:36:43;19.20;49.70
32753;DHT22;19121;52.428;10.816;2024-02-21T03:39:09;19.20;49.70
32753;DHT22;19121;52.428;10.816;2024-02-21T03:41:34;19.30;49.70
32753;DHT22;19121;52.428;10.816;2024-02-21T03:44:00;19.30;49.60
32753;DHT22;19121;52.428;10.816;2024-02-21T03:46:25;19.30;49.60
32753;DHT22;19121;52.428;10.816;2024-02-21T03:48:51;19.30;49.60
32753;DHT22;19121;52.428;10.816;2024-02-21T03:51:16;19.30;49.60
32753;DHT22;19121;52.428;10.816;2024-02-21T03:53:42;19.30;49.60
32753;DHT22;19121;52.428;10.816;2024-02-21T03:56:07;19.40;49.60
32753;DHT22;19121;52.428;10.816;2024-02-21T03:58:33;19.40;49.60
32753;DHT22;19121;52.428;10.816;2024-02-21T04:00:59;19.40;49.50
32753;DHT22;19121;52.428;10.816;2024-02-21T04:03:25;19.30;49.50
32753;DHT22;19121;52.428;10.816;2024-02-21T04:05:50;19.40;49.50
32753;DHT22;19121;52.428;10.816;2024-02-21T04:08:16;19.40;49.50
32753;DHT22;19121;52.428;10.816;2024-02-21T04:10:41;19.40;49.50
32753;DHT22;19121;52.428;10.816;2024-02-21T04:13:07;19.50;49.50
32753;DHT22;19121;52.428;10.816;2024-02-21T04:15:32;19.40;49.40
32753;DHT22;19121;52.428;10.816;2024-02-21T04:17:58;19.40;49.40
32753;DHT22;19121;52.428;10.816;2024-02-21T04:20:24;19.40;49.40
32753;DHT22;19121;52.428;10.816;2024-02-21T04:22:49;19.50;49.40
32753;DHT22;19121;52.428;10.816;2024-02-21T04:25:14;19.50;49.40
32753;DHT22;19121;52.428;10.816;2024-02-21T04:27:40;19.50;49.40
32753;DHT22;19121;52.428;10.816;2024-02-21T04:30:06;19.50;49.40
32753;DHT22;19121;52.428;10.816;2024-02-21T04:32:31;19.50;49.40
32753;DHT22;19121;52.428;10.816;2024-02-21T04:34:57;19.50;49.40
32753;DHT22;19121;52.428;10.816;2024-02-21T04:37:22;19.50;49.40
32753;DHT22;19121;52.428;10.816;2024-02-21T04:39:48;19.50;49.30
32753;DHT22;19121;52.428;10.816;2024-02-21T04:42:13;19.50;49.40
32753;DHT22;19121;52.428;10.816;2024-02-21T04:44:39;19.50;49.30
32753;DHT22;19121;52.428;10.816;2024-02-21T04:47:04;19.50;49.30
32753;DHT22;19121;52.428;10.816;2024-02-21T04:49:30;19.50;49.30
32753;DHT22;19121;52.428;10.816;2024-02-21T04:51:55;19.50;49.30
32753;DHT22;19121;52.428;10.816;2024-02-21T04:54:21;19.50;49.20
32753;DHT22;19121;52.428;10.816;2024-02-21T04:56:46;19.60;49.30
32753;DHT22;19121;52.428;10.816;2024-02-21T04:59:11;19.60;49.30
32753;DHT22;19121;52.428;10.816;2024-02-21T05:01:37;19.60;49.20
32753;DHT22;19121;52.428;10.816;2024-02-21T05:04:02;19.60;49.20
32753;DHT22;19121;52.428;10.816;2024-02-21T05:06:28;19.60;49.20
32753;DHT22;19121;52.428;10.816;2024-02-21T05:08:53;19.60;49.20
32753;DHT22;19121;52.428;10.816;2024-02-21T05:11:21;19.60;49.20
32753;DHT22;19121;52.428;10.816;2024-02-21T05:13:46;19.60;49.20
32753;DHT22;19121;52.428;10.816;2024-02-21T05:16:11;19.60;49.20
32753;DHT22;19121;52.428;10.816;2024-02-21T05:18:37;19.60;49.20
32753;DHT22;19121;52.428;10.816;2024-02-21T05:21:02;19.60;49.20
32753;DHT22;19121;52.428;10.816;2024-02-21T05:23:28;19.60;49.20
32753;DHT22;19121;52.428;10.816;2024-02-21T05:25:54;19.60;49.10
32753;DHT22;19121;52.428;10.816;2024-02-21T05:28:19;19.60;49.10
32753;DHT22;19121;52.428;10.816;2024-02-21T05:30:45;19.70;49.20
32753;DHT22;19121;52.428;10.816;2024-02-21T05:33:10;19.60;49.10
32753;DHT22;19121;52.428;10.816;2024-02-21T05:35:36;19.70;49.20
32753;DHT22;19121;52.428;10.816;2024-02-21T05:38:02;19.60;49.10
32753;DHT22;19121;52.428;10.816;2024-02-21T05:40:31;19.60;49.10
32753;DHT22;19121;52.428;10.816;2024-02-21T05:42:57;19.70;49.10
32753;DHT22;19121;52.428;10.816;2024-02-21T05:45:23;19.70;49.10
32753;DHT22;19121;52.428;10.816;2024-02-21T05:47:48;19.60;49.00
32753;DHT22;19121;52.428;10.816;2024-02-21T05:50:13;19.70;49.10
32753;DHT22;19121;52.428;10.816;2024-02-21T05:52:39;19.70;49.00
32753;DHT22;19121;52.428;10.816;2024-02-21T05:55:06;19.70;49.10
32753;DHT22;19121;52.428;10.816;2024-02-21T05:57:31;19.70;49.00
32753;DHT22;19121;52.428;10.816;2024-02-21T05:59:57;19.70;49.00
32753;DHT22;19121;52.428;10.816;2024-02-21T06:02:22;19.70;49.00
32753;DHT22;19121;52.428;10.816;2024-02-21T06:04:48;19.70;49.10
32753;DHT22;19121;52.428;10.816;2024-02-21T06:07:13;19.70;49.00
32753;DHT22;19121;52.428;10.816;2024-02-21T06:09:39;19.70;49.00
32753;DHT22;19121;52.428;10.816;2024-02-21T06:12:04;19.70;49.00
32753;DHT22;19121;52.428;10.816;2024-02-21T06:14:29;19.70;49.00
32753;DHT22;19121;52.428;10.816;2024-02-21T06:16:55;19.70;49.00
32753;DHT22;19121;52.428;10.816;2024-02-21T06:19:20;19.70;49.00
32753;DHT22;19121;52.428;10.816;2024-02-21T06:21:46;19.70;49.00
32753;DHT22;19121;52.428;10.816;2024-02-21T06:24:11;19.70;49.00
32753;DHT22;19121;52.428;10.816;2024-02-21T06:26:38;19.70;49.00
32753;DHT22;19121;52.428;10.816;2024-02-21T06:29:03;19.70;49.00
32753;DHT22;19121;52.428;10.816;2024-02-21T06:31:28;19.70;49.00
32753;DHT22;19121;52.428;10.816;2024-02-21T06:33:54;19.70;48.90
32753;DHT22;19121;52.428;10.816;2024-02-21T06:36:19;19.70;49.00
32753;DHT22;19121;52.428;10.816;2024-02-21T06:38:45;19.70;48.90
32753;DHT22;19121;52.428;10.816;2024-02-21T06:41:19;19.70;48.90
32753;DHT22;19121;52.428;10.816;2024-02-21T06:43:47;19.70;49.00
32753;DHT22;19121;52.428;10.816;2024-02-21T06:46:25;19.70;49.00
32753;DHT22;19121;52.428;10.816;2024-02-21T06:48:51;19.70;49.00
32753;DHT22;19121;52.428;10.816;2024-02-21T06:51:16;19.70;49.00
32753;DHT22;19121;52.428;10.816;2024-02-21T06:53:42;19.70;49.00
32753;DHT22;19121;52.428;10.816;2024-02-21T06:56:09;19.70;49.10
32753;DHT22;19121;52.428;10.816;2024-02-21T06:58:34;19.70;49.20
32753;DHT22;19121;52.428;10.816;2024-02-21T07:01:00;19.80;49.20
32753;DHT22;19121;52.428;10.816;2024-02-21T07:03:26;19.70;49.20
32753;DHT22;19121;52.428;10.816;2024-02-21T07:05:51;19.80;49.20
32753;DHT22;19121;52.428;10.816;2024-02-21T07:08:16;19.70;49.20
32753;DHT22;19121;52.428;10.816;2024-02-21T07:10:42;19.70;49.20
32753;DHT22;19121;52.428;10.816;2024-02-21T07:13:07;19.80;49.20
32753;DHT22;19121;52.428;10.816;2024-02-21T07:15:33;19.80;49.20
32753;DHT22;19121;52.428;10.816;2024-02-21T07:17:58;19.90;49.20
32753;DHT22;19121;52.428;10.816;2024-02-21T07:20:24;19.90;49.30
32753;DHT22;19121;52.428;10.816;2024-02-21T07:22:50;19.80;49.20
32753;DHT22;19121;52.428;10.816;2024-02-21T07:25:15;19.90;49.30
32753;DHT22;19121;52.428;10.816;2024-02-21T07:27:41;19.90;49.30
32753;DHT22;19121;52.428;10.816;2024-02-21T07:30:07;19.90;49.30
32753;DHT22;19121;52.428;10.816;2024-02-21T07:32:32;19.90;49.30
32753;DHT22;19121;52.428;10.816;2024-02-21T07:34:59;19.80;49.30
32753;DHT22;19121;52.428;10.816;2024-02-21T07:37:25;19.90;49.30
32753;DHT22;19121;52.428;10.816;2024-02-21T07:39:50;19.90;49.30
32753;DHT22;19121;52.428;10.816;2024-02-21T07:42:15;19.90;49.30
32753;DHT22;19121;52.428;10.816;2024-02-21T07:44:41;19.90;49.30
32753;DHT22;19121;52.428;10.816;2024-02-21T07:47:06;19.90;49.40
32753;DHT22;19121;52.428;10.816;2024-02-21T07:49:32;19.90;49.40
32753;DHT22;19121;52.428;10.816;2024-02-21T07:52:00;19.90;49.50
32753;DHT22;19121;52.428;10.816;2024-02-21T07:54:25;19.80;49.40
32753;DHT22;19121;52.428;10.816;2024-02-21T07:56:51;19.80;49.40
32753;DHT22;19121;52.428;10.816;2024-02-21T07:59:16;19.90;49.50
32753;DHT22;19121;52.428;10.816;2024-02-21T08:01:42;19.90;49.60
32753;DHT22;19121;52.428;10.816;2024-02-21T08:04:08;19.90;49.70
32753;DHT22;19121;52.428;10.816;2024-02-21T08:06:33;19.90;49.60
32753;DHT22;19121;52.428;10.816;2024-02-21T08:08:59;19.90;49.70
32753;DHT22;19121;52.428;10.816;2024-02-21T08:11:25;19.90;49.70
32753;DHT22;19121;52.428;10.816;2024-02-21T08:13:51;20.00;49.80
32753;DHT22;19121;52.428;10.816;2024-02-21T08:16:16;20.00;49.80
32753;DHT22;19121;52.428;10.816;2024-02-21T08:18:43;20.00;49.80
32753;DHT22;19121;52.428;10.816;2024-02-21T08:21:09;20.00;49.80
32753;DHT22;19121;52.428;10.816;2024-02-21T08:23:34;20.10;49.90
32753;DHT22;19121;52.428;10.816;2024-02-21T08:26:02;20.00;49.80
32753;DHT22;19121;52.428;10.816;2024-02-21T08:28:27;20.00;49.80
32753;DHT22;19121;52.428;10.816;2024-02-21T08:30:53;20.00;49.80
32753;DHT22;19121;52.428;10.816;2024-02-21T08:33:18;20.00;49.90
32753;DHT22;19121;52.428;10.816;2024-02-21T08:35:44;20.00;50.00
32753;DHT22;19121;52.428;10.816;2024-02-21T08:38:09;20.10;50.00
32753;DHT22;19121;52.428;10.816;2024-02-21T08:40:35;20.10;50.00
32753;DHT22;19121;52.428;10.816;2024-02-21T08:43:00;20.10;50.00
32753;DHT22;19121;52.428;10.816;2024-02-21T08:45:26;20.10;50.00
32753;DHT22;19121;52.428;10.816;2024-02-21T08:47:51;20.10;50.00
32753;DHT22;19121;52.428;10.816;2024-02-21T08:50:17;20.10;50.00
32753;DHT22;19121;52.428;10.816;2024-02-21T08:52:42;20.10;50.00
32753;DHT22;19121;52.428;10.816;2024-02-21T08:55:08;20.10;50.00
32753;DHT22;19121;52.428;10.816;2024-02-21T08:57:33;20.10;50.00
32753;DHT22;19121;52.428;10.816;2024-02-21T09:00:04;20.10;50.00
32753;DHT22;19121;52.428;10.816;2024-02-21T09:02:35;20.10;50.10
32753;DHT22;19121;52.428;10.816;2024-02-21T09:05:01;20.10;50.10
32753;DHT22;19121;52.428;10.816;2024-02-21T09:07:26;20.10;50.10
32753;DHT22;19121;52.428;10.816;2024-02-21T09:09:52;20.20;50.10
32753;DHT22;19121;52.428;10.816;2024-02-21T09:12:17;20.20;50.10
32753;DHT22;19121;52.428;10.816;2024-02-21T09:14:42;20.20;50.10
32753;DHT22;19121;52.428;10.816;2024-02-21T09:17:08;20.20;50.10
32753;DHT22;19121;52.428;10.816;2024-02-21T09:19:35;20.20;50.10
32753;DHT22;19121;52.428;10.816;2024-02-21T09:22:00;20.20;50.10
32753;DHT22;19121;52.428;10.816;2024-02-21T09:24:26;20.20;50.10
32753;DHT22;19121;52.428;10.816;2024-02-21T09:26:51;20.20;50.00
32753;DHT22;19121;52.428;10.816;2024-02-21T09:29:17;20.20;49.90
32753;DHT22;19121;52.428;10.816;2024-02-21T09:31:42;20.20;49.90
32753;DHT22;19121;52.428;10.816;2024-02-21T09:34:08;20.20;49.90
32753;DHT22;19121;52.428;10.816;2024-02-21T09:36:33;20.30;49.90
32753;DHT22;19121;52.428;10.816;2024-02-21T09:38:59;20.30;49.90
32753;DHT22;19121;52.428;10.816;2024-02-21T09:41:27;20.30;49.90
32753;DHT22;19121;52.428;10.816;2024-02-21T09:43:53;20.30;49.90
32753;DHT22;19121;52.428;10.816;2024-02-21T09:46:39;20.30;49.80
32753;DHT22;19121;52.428;10.816;2024-02-21T09:51:41;20.30;49.80
32753;DHT22;19121;52.428;10.816;2024-02-21T09:54:07;20.30;49.80
32753;DHT22;19121;52.428;10.816;2024-02-21T09:56:33;20.30;49.80
32753;DHT22;19121;52.428;10.816;2024-02-21T09:58:58;20.30;49.90
32753;DHT22;19121;52.428;10.816;2024-02-21T10:01:24;20.30;49.90
32753;DHT22;19121;52.428;10.816;2024-02-21T10:03:49;20.30;49.80
32753;DHT22;19121;52.428;10.816;2024-02-21T10:06:15;20.30;49.80
32753;DHT22;19121;52.428;10.816;2024-02-21T10:08:40;20.30;49.90
32753;DHT22;19121;52.428;10.816;2024-02-21T10:11:06;20.30;50.00
32753;DHT22;19121;52.428;10.816;2024-02-21T10:13:34;20.30;50.20
32753;DHT22;19121;52.428;10.816;2024-02-21T10:16:06;20.30;50.10
32753;DHT22;19121;52.428;10.816;2024-02-21T10:18:32;20.30;50.20
32753;DHT22;19121;52.428;10.816;2024-02-21T10:21:01;20.40;50.20
32753;DHT22;19121;52.428;10.816;2024-02-21T10:23:27;20.40;50.20
32753;DHT22;19121;52.428;10.816;2024-02-21T10:25:52;20.40;50.20
32753;DHT22;19121;52.428;10.816;2024-02-21T10:28:18;20.40;50.20
32753;DHT22;19121;52.428;10.816;2024-02-21T10:30:51;20.40;50.10
32753;DHT22;19121;52.428;10.816;2024-02-21T10:33:19;20.40;50.10
32753;DHT22;19121;52.428;10.816;2024-02-21T10:35:49;20.40;50.10
32753;DHT22;19121;52.428;10.816;2024-02-21T10:38:15;20.50;50.10
32753;DHT22;19121;52.428;10.816;2024-02-21T10:40:40;20.50;50.20
32753;DHT22;19121;52.428;10.816;2024-02-21T10:43:05;20.50;50.20
32753;DHT22;19121;52.428;10.816;2024-02-21T10:45:36;20.50;50.20
32753;DHT22;19121;52.428;10.816;2024-02-21T10:48:11;20.50;50.10
32753;DHT22;19121;52.428;10.816;2024-02-21T10:50:52;20.50;50.10
32753;DHT22;19121;52.428;10.816;2024-02-21T10:55:46;20.50;50.10
32753;DHT22;19121;52.428;10.816;2024-02-21T10:58:15;20.50;50.00
32753;DHT22;19121;52.428;10.816;2024-02-21T11:00:40;20.50;50.10
32753;DHT22;19121;52.428;10.816;2024-02-21T11:03:08;20.50;50.10
32753;DHT22;19121;52.428;10.816;2024-02-21T11:05:34;20.50;50.00
32753;DHT22;19121;52.428;10.816;2024-02-21T11:07:59;20.50;50.10
32753;DHT22;19121;52.428;10.816;2024-02-21T11:10:25;20.50;50.10
32753;DHT22;19121;52.428;10.816;2024-02-21T11:13:05;20.50;50.00
32753;DHT22;19121;52.428;10.816;2024-02-21T11:15:30;20.50;50.00
32753;DHT22;19121;52.428;10.816;2024-02-21T11:17:56;20.50;50.00
32753;DHT22;19121;52.428;10.816;2024-02-21T11:20:31;20.60;50.00
32753;DHT22;19121;52.428;10.816;2024-02-21T11:22:57;20.60;50.00
32753;DHT22;19121;52.428;10.816;2024-02-21T11:25:22;20.60;50.00
32753;DHT22;19121;52.428;10.816;2024-02-21T11:27:48;20.60;49.90
32753;DHT22;19121;52.428;10.816;2024-02-21T11:30:13;20.60;49.90
32753;DHT22;19121;52.428;10.816;2024-02-21T11:32:47;20.60;49.90
32753;DHT22;19121;52.428;10.816;2024-02-21T11:35:19;20.60;49.90
32753;DHT22;19121;52.428;10.816;2024-02-21T11:37:44;20.60;49.90
32753;DHT22;19121;52.428;10.816;2024-02-21T11:40:11;20.60;49.80
32753;DHT22;19121;52.428;10.816;2024-02-21T11:42:37;20.60;49.90
32753;DHT22;19121;52.428;10.816;2024-02-21T11:45:03;20.60;49.90
32753;DHT22;19121;52.428;10.816;2024-02-21T11:47:28;20.70;50.00
32753;DHT22;19121;52.428;10.816;2024-02-21T11:49:54;20.70;49.90
32753;DHT22;19121;52.428;10.816;2024-02-21T11:52:23;20.60;50.40
32753;DHT22;19121;52.428;10.816;2024-02-21T11:54:53;20.70;49.80
32753;DHT22;19121;52.428;10.816;2024-02-21T11:57:20;20.70;49.80
32753;DHT22;19121;52.428;10.816;2024-02-21T11:59:45;20.70;49.80
32753;DHT22;19121;52.428;10.816;2024-02-21T12:02:12;20.70;49.70
32753;DHT22;19121;52.428;10.816;2024-02-21T12:04:37;20.70;49.70
32753;DHT22;19121;52.428;10.816;2024-02-21T12:07:04;20.70;49.80
32753;DHT22;19121;52.428;10.816;2024-02-21T12:09:30;20.70;49.70
32753;DHT22;19121;52.428;10.816;2024-02-21T12:12:02;20.60;49.80
32753;DHT22;19121;52.428;10.816;2024-02-21T12:14:31;20.60;49.70
32753;DHT22;19121;52.428;10.816;2024-02-21T12:16:57;20.60;49.50
32753;DHT22;19121;52.428;10.816;2024-02-21T12:19:23;20.60;49.50
32753;DHT22;19121;52.428;10.816;2024-02-21T12:21:49;20.60;49.30
32753;DHT22;19121;52.428;10.816;2024-02-21T12:24:22;20.50;48.70
32753;DHT22;19121;52.428;10.816;2024-02-21T12:26:51;20.60;48.40
32753;DHT22;19121;52.428;10.816;2024-02-21T12:29:17;20.60;48.10
32753;DHT22;19121;52.428;10.816;2024-02-21T12:31:43;20.60;48.10
32753;DHT22;19121;52.428;10.816;2024-02-21T12:34:09;20.60;48.10
32753;DHT22;19121;52.428;10.816;2024-02-21T12:36:36;20.60;48.10
32753;DHT22;19121;52.428;10.816;2024-02-21T12:39:01;20.60;48.20
32753;DHT22;19121;52.428;10.816;2024-02-21T12:41:28;20.70;48.20
32753;DHT22;19121;52.428;10.816;2024-02-21T12:43:55;20.60;48.20
32753;DHT22;19121;52.428;10.816;2024-02-21T12:46:21;20.60;48.20
32753;DHT22;19121;52.428;10.816;2024-02-21T12:48:47;20.60;48.30
32753;DHT22;19121;52.428;10.816;2024-02-21T12:51:12;20.70;48.20
32753;DHT22;19121;52.428;10.816;2024-02-21T12:53:38;20.70;48.20
32753;DHT22;19121;52.428;10.816;2024-02-21T12:56:04;20.70;48.20
32753;DHT22;19121;52.428;10.816;2024-02-21T12:58:30;20.70;48.30
32753;DHT22;19121;52.428;10.816;2024-02-21T13:00:56;20.70;48.20
32753;DHT22;19121;52.428;10.816;2024-02-21T13:03:22;20.70;48.20
32753;DHT22;19121;52.428;10.816;2024-02-21T13:05:47;20.70;48.20
32753;DHT22;19121;52.428;10.816;2024-02-21T13:08:13;20.70;48.20
32753;DHT22;19121;52.428;10.816;2024-02-21T13:10:39;20.70;48.20
32753;DHT22;19121;52.428;10.816;2024-02-21T13:13:04;20.70;48.30
32753;DHT22;19121;52.428;10.816;2024-02-21T13:15:29;20.70;48.30
32753;DHT22;19121;52.428;10.816;2024-02-21T13:17:58;20.70;48.30
32753;DHT22;19121;52.428;10.816;2024-02-21T13:20:25;20.70;48.30
32753;DHT22;19121;52.428;10.816;2024-02-21T13:22:50;20.70;48.30
32753;DHT22;19121;52.428;10.816;2024-02-21T13:25:16;20.70;48.10
32753;DHT22;19121;52.428;10.816;2024-02-21T13:27:43;20.60;47.60
32753;DHT22;19121;52.428;10.816;2024-02-21T13:30:09;20.70;47.30
32753;DHT22;19121;52.428;10.816;2024-02-21T13:32:35;20.70;47.20
32753;DHT22;19121;52.428;10.816;2024-02-21T13:35:01;20.70;47.20
32753;DHT22;19121;52.428;10.816;2024-02-21T13:37:27;20.70;47.10
32753;DHT22;19121;52.428;10.816;2024-02-21T13:39:52;20.60;47.40
32753;DHT22;19121;52.428;10.816;2024-02-21T13:42:18;20.70;47.10
32753;DHT22;19121;52.428;10.816;2024-02-21T13:44:44;20.70;47.10
32753;DHT22;19121;52.428;10.816;2024-02-21T13:47:10;20.70;47.10
32753;DHT22;19121;52.428;10.816;2024-02-21T13:49:36;20.70;47.20
32753;DHT22;19121;52.428;10.816;2024-02-21T13:52:02;20.80;47.30
32753;DHT22;19121;52.428;10.816;2024-02-21T13:54:27;20.70;47.20
32753;DHT22;19121;52.428;10.816;2024-02-21T13:56:53;20.70;47.30
32753;DHT22;19121;52.428;10.816;2024-02-21T13:59:18;20.70;47.30
32753;DHT22;19121;52.428;10.816;2024-02-21T14:01:43;20.80;47.30
32753;DHT22;19121;52.428;10.816;2024-02-21T14:04:09;20.80;47.40
32753;DHT22;19121;52.428;10.816;2024-02-21T14:06:34;20.70;47.40
32753;DHT22;19121;52.428;10.816;2024-02-21T14:09:00;20.80;47.50
32753;DHT22;19121;52.428;10.816;2024-02-21T14:11:26;20.80;47.50
32753;DHT22;19121;52.428;10.816;2024-02-21T14:13:52;20.80;47.60
32753;DHT22;19121;52.428;10.816;2024-02-21T14:16:17;20.80;47.60
32753;DHT22;19121;52.428;10.816;2024-02-21T14:18:43;20.80;47.60
32753;DHT22;19121;52.428;10.816;2024-02-21T14:21:09;20.80;47.60
32753;DHT22;19121;52.428;10.816;2024-02-21T14:23:37;20.80;47.60
32753;DHT22;19121;52.428;10.816;2024-02-21T14:26:03;20.80;47.60
32753;DHT22;19121;52.428;10.816;2024-02-21T14:28:29;20.80;47.70
32753;DHT22;19121;52.428;10.816;2024-02-21T14:30:54;20.80;47.70
32753;DHT22;19121;52.428;10.816;2024-02-21T14:33:23;20.80;47.70
32753;DHT22;19121;52.428;10.816;2024-02-21T14:35:49;20.80;47.70
32753;DHT22;19121;52.428;10.816;2024-02-21T14:38:14;20.80;47.70
32753;DHT22;19121;52.428;10.816;2024-02-21T14:40:40;20.80;47.90
32753;DHT22;19121;52.428;10.816;2024-02-21T14:43:05;20.80;47.90
32753;DHT22;19121;52.428;10.816;2024-02-21T14:45:31;20.80;47.90
32753;DHT22;19121;52.428;10.816;2024-02-21T14:47:56;20.80;47.90
32753;DHT22;19121;52.428;10.816;2024-02-21T14:50:21;20.80;48.00
32753;DHT22;19121;52.428;10.816;2024-02-21T14:52:48;20.80;48.00
32753;DHT22;19121;52.428;10.816;2024-02-21T14:55:14;20.80;48.00
32753;DHT22;19121;52.428;10.816;2024-02-21T14:57:39;20.80;48.00
32753;DHT22;19121;52.428;10.816;2024-02-21T15:00:07;20.90;48.10
32753;DHT22;19121;52.428;10.816;2024-02-21T15:02:33;20.80;48.10
32753;DHT22;19121;52.428;10.816;2024-02-21T15:05:00;20.90;48.20
32753;DHT22;19121;52.428;10.816;2024-02-21T15:07:25;20.90;48.20
32753;DHT22;19121;52.428;10.816;2024-02-21T15:09:51;20.90;48.30
32753;DHT22;19121;52.428;10.816;2024-02-21T15:12:17;20.80;48.30